sensor_id;sensor_type;location;lat;lon;timestamp;pressure;altitude;pressure_sealevel;temperature;humidity
54540;BME280;40438;52.992;18.604;2022-10-31T00:02:20;101291.56;;;9.65;100.00
54540;BME280;40438;52.992;18.604;2022-10-31T00:04:45;101282.31;;;9.68;100.00
54540;BME280;40438;52.992;18.604;2022-10-31T00:07:12;101289.50;;;9.67;100.00
54540;BME280;40438;52.992;18.604;2022-10-31T00:09:38;101294.44;;;9.70;100.00
54540;BME280;40438;52.992;18.604;2022-10-31T00:12:04;101294.44;;;9.70;100.00
54540;BME280;40438;52.992;18.604;2022-10-31T00:14:30;101294.44;;;9.70;100.00
54540;BME280;40438;52.992;18.604;2022-10-31T00:16:56;101283.75;;;9.70;100.00
54540;BME280;40438;52.992;18.604;2022-10-31T00:19:21;101290.34;;;9.68;100.00
54540;BME280;40438;52.992;18.604;2022-10-31T00:21:47;101293.63;;;9.70;100.00
54540;BME280;40438;52.992;18.604;2022-10-31T00:24:14;101298.38;;;9.68;100.00
54540;BME280;40438;52.992;18.604;2022-10-31T00:26:40;101298.16;;;9.69;100.00
54540;BME280;40438;52.992;18.604;2022-10-31T00:29:06;101293.84;;;9.68;100.00
54540;BME280;40438;52.992;18.604;2022-10-31T00:31:32;101289.69;;;9.66;100.00
54540;BME280;40438;52.992;18.604;2022-10-31T00:33:59;101303.28;;;9.64;100.00
54540;BME280;40438;52.992;18.604;2022-10-31T00:36:26;101298.94;;;9.63;100.00
54540;BME280;40438;52.992;18.604;2022-10-31T00:38:52;101302.44;;;9.64;100.00
54540;BME280;40438;52.992;18.604;2022-10-31T00:41:22;101289.25;;;9.62;100.00
54540;BME280;40438;52.992;18.604;2022-10-31T00:43:47;101285.16;;;9.66;100.00
54540;BME280;40438;52.992;18.604;2022-10-31T00:46:13;101296.47;;;9.62;100.00
54540;BME280;40438;52.992;18.604;2022-10-31T00:48:40;101280.41;;;9.62;100.00
54540;BME280;40438;52.992;18.604;2022-10-31T00:51:06;101284.88;;;9.54;100.00
54540;BME280;40438;52.992;18.604;2022-10-31T00:53:32;101284.69;;;9.56;100.00
54540;BME280;40438;52.992;18.604;2022-10-31T00:55:59;101285.91;;;9.53;100.00
54540;BME280;40438;52.992;18.604;2022-10-31T00:58:26;101285.47;;;9.50;100.00
54540;BME280;40438;52.992;18.604;2022-10-31T01:00:52;101276.63;;;9.49;100.00
54540;BME280;40438;52.992;18.604;2022-10-31T01:03:18;101282.72;;;9.43;100.00
54540;BME280;40438;52.992;18.604;2022-10-31T01:05:44;101279.84;;;9.45;100.00
54540;BME280;40438;52.992;18.604;2022-10-31T01:08:09;101285.59;;;9.42;100.00
54540;BME280;40438;52.992;18.604;2022-10-31T01:10:35;101281.47;;;9.39;100.00
54540;BME280;40438;52.992;18.604;2022-10-31T01:13:01;101281.09;;;9.42;100.00
54540;BME280;40438;52.992;18.604;2022-10-31T01:15:28;101275.47;;;9.37;100.00
54540;BME280;40438;52.992;18.604;2022-10-31T01:17:54;101268.72;;;9.41;100.00
54540;BME280;40438;52.992;18.604;2022-10-31T01:20:20;101274.22;;;9.33;100.00
54540;BME280;40438;52.992;18.604;2022-10-31T01:22:45;101276.41;;;9.23;100.00
54540;BME280;40438;52.992;18.604;2022-10-31T01:25:11;101278.88;;;9.24;100.00
54540;BME280;40438;52.992;18.604;2022-10-31T01:27:37;101287.91;;;9.23;100.00
54540;BME280;40438;52.992;18.604;2022-10-31T01:30:07;101276.41;;;9.23;100.00
54540;BME280;40438;52.992;18.604;2022-10-31T01:32:34;101273.31;;;9.26;100.00
54540;BME280;40438;52.992;18.604;2022-10-31T01:35:00;101274.78;;;9.28;100.00
54540;BME280;40438;52.992;18.604;2022-10-31T01:37:25;101276.84;;;9.26;100.00
54540;BME280;40438;52.992;18.604;2022-10-31T01:39:51;101278.22;;;9.22;100.00
54540;BME280;40438;52.992;18.604;2022-10-31T01:42:19;101273.91;;;9.21;100.00
54540;BME280;40438;52.992;18.604;2022-10-31T01:44:54;101276.91;;;9.12;100.00
54540;BME280;40438;52.992;18.604;2022-10-31T01:47:34;101281.97;;;9.06;100.00
54540;BME280;40438;52.992;18.604;2022-10-31T01:50:03;101277.88;;;9.04;100.00
54540;BME280;40438;52.992;18.604;2022-10-31T01:52:34;101275.00;;;9.05;100.00
54540;BME280;40438;52.992;18.604;2022-10-31T01:55:04;101279.50;;;9.05;100.00
54540;BME280;40438;52.992;18.604;2022-10-31T01:57:32;101278.69;;;9.04;100.00
54540;BME280;40438;52.992;18.604;2022-10-31T02:00:03;101286.28;;;9.01;100.00
54540;BME280;40438;52.992;18.604;2022-10-31T02:02:40;101278.41;;;8.99;100.00
54540;BME280;40438;52.992;18.604;2022-10-31T02:05:10;101288.56;;;9.04;100.00
54540;BME280;40438;52.992;18.604;2022-10-31T02:07:43;101288.09;;;9.00;100.00
54540;BME280;40438;52.992;18.604;2022-10-31T02:10:11;101272.91;;;9.01;100.00
54540;BME280;40438;52.992;18.604;2022-10-31T02:12:38;101280.34;;;9.05;100.00
54540;BME280;40438;52.992;18.604;2022-10-31T02:15:05;101285.69;;;9.05;100.00
54540;BME280;40438;52.992;18.604;2022-10-31T02:17:32;101291.22;;;9.04;100.00
54540;BME280;40438;52.992;18.604;2022-10-31T02:20:05;101300.31;;;9.10;100.00
54540;BME280;40438;52.992;18.604;2022-10-31T02:22:40;101292.28;;;9.10;100.00
54540;BME280;40438;52.992;18.604;2022-10-31T02:25:20;101290.44;;;9.10;100.00
54540;BME280;40438;52.992;18.604;2022-10-31T02:28:13;101288.63;;;9.11;100.00
54540;BME280;40438;52.992;18.604;2022-10-31T02:30:58;101296.63;;;9.11;100.00
54540;BME280;40438;52.992;18.604;2022-10-31T02:33:31;101293.59;;;9.14;100.00
54540;BME280;40438;52.992;18.604;2022-10-31T02:36:07;101293.00;;;9.18;100.00
54540;BME280;40438;52.992;18.604;2022-10-31T02:38:47;101293.00;;;9.18;100.00
54540;BME280;40438;52.992;18.604;2022-10-31T02:41:32;101295.72;;;9.25;100.00
54540;BME280;40438;52.992;18.604;2022-10-31T02:44:09;101298.22;;;9.26;100.00
54540;BME280;40438;52.992;18.604;2022-10-31T02:46:43;101302.34;;;9.29;100.00
54540;BME280;40438;52.992;18.604;2022-10-31T02:49:17;101306.47;;;9.32;100.00
54540;BME280;40438;52.992;18.604;2022-10-31T02:51:45;101307.94;;;9.34;100.00
54540;BME280;40438;52.992;18.604;2022-10-31T02:54:18;101312.25;;;9.35;100.00
54540;BME280;40438;52.992;18.604;2022-10-31T02:56:45;101317.81;;;9.34;100.00
54540;BME280;40438;52.992;18.604;2022-10-31T02:59:11;101317.44;;;9.37;100.00
54540;BME280;40438;52.992;18.604;2022-10-31T03:01:48;101321.59;;;9.39;100.00
54540;BME280;40438;52.992;18.604;2022-10-31T03:04:43;101322.84;;;9.43;100.00
54540;BME280;40438;52.992;18.604;2022-10-31T03:07:20;101320.59;;;9.47;100.00
54540;BME280;40438;52.992;18.604;2022-10-31T03:09:55;101321.69;;;9.52;100.00
54540;BME280;40438;52.992;18.604;2022-10-31T03:12:22;101328.31;;;9.57;100.00
54540;BME280;40438;52.992;18.604;2022-10-31T03:14:53;101327.28;;;9.58;100.00
54540;BME280;40438;52.992;18.604;2022-10-31T03:17:26;101333.25;;;9.60;100.00
54540;BME280;40438;52.992;18.604;2022-10-31T03:19:54;101327.53;;;9.63;100.00
54540;BME280;40438;52.992;18.604;2022-10-31T03:22:23;101332.88;;;9.63;100.00
54540;BME280;40438;52.992;18.604;2022-10-31T03:24:52;101329.81;;;9.66;100.00
54540;BME280;40438;52.992;18.604;2022-10-31T03:27:22;101332.94;;;9.69;100.00
54540;BME280;40438;52.992;18.604;2022-10-31T03:29:51;101332.31;;;9.67;100.00
54540;BME280;40438;52.992;18.604;2022-10-31T03:32:24;101333.75;;;9.70;100.00
54540;BME280;40438;52.992;18.604;2022-10-31T03:34:55;101327.41;;;9.71;100.00
54540;BME280;40438;52.992;18.604;2022-10-31T03:37:22;101330.91;;;9.71;100.00
54540;BME280;40438;52.992;18.604;2022-10-31T03:39:53;101335.59;;;9.69;100.00
54540;BME280;40438;52.992;18.604;2022-10-31T03:42:24;101336.00;;;9.66;100.00
54540;BME280;40438;52.992;18.604;2022-10-31T03:44:55;101335.81;;;9.68;100.00
54540;BME280;40438;52.992;18.604;2022-10-31T03:47:23;101328.78;;;9.67;100.00
54540;BME280;40438;52.992;18.604;2022-10-31T03:49:49;101336.00;;;9.66;100.00
54540;BME280;40438;52.992;18.604;2022-10-31T03:52:20;101337.84;;;9.66;100.00
54540;BME280;40438;52.992;18.604;2022-10-31T03:54:54;101339.88;;;9.64;100.00
54540;BME280;40438;52.992;18.604;2022-10-31T03:57:24;101348.94;;;9.63;100.00
54540;BME280;40438;52.992;18.604;2022-10-31T03:59:55;101343.31;;;9.58;100.00
54540;BME280;40438;52.992;18.604;2022-10-31T04:02:28;101342.25;;;9.52;100.00
54540;BME280;40438;52.992;18.604;2022-10-31T04:04:56;101348.44;;;9.52;100.00
54540;BME280;40438;52.992;18.604;2022-10-31T04:07:22;101352.13;;;9.51;100.00
54540;BME280;40438;52.992;18.604;2022-10-31T04:09:52;101354.59;;;9.53;100.00
54540;BME280;40438;52.992;18.604;2022-10-31T04:12:21;101351.50;;;9.49;100.00
54540;BME280;40438;52.992;18.604;2022-10-31T04:15:12;101353.13;;;9.50;100.00
54540;BME280;40438;52.992;18.604;2022-10-31T04:17:42;101345.94;;;9.51;100.00
54540;BME280;40438;52.992;18.604;2022-10-31T04:20:11;101346.78;;;9.51;100.00
54540;BME280;40438;52.992;18.604;2022-10-31T04:22:40;101348.88;;;9.56;100.00
54540;BME280;40438;52.992;18.604;2022-10-31T04:25:07;101343.31;;;9.58;100.00
54540;BME280;40438;52.992;18.604;2022-10-31T04:27:33;101342.31;;;9.59;100.00
54540;BME280;40438;52.992;18.604;2022-10-31T04:29:59;101345.00;;;9.59;100.00
54540;BME280;40438;52.992;18.604;2022-10-31T04:32:25;101343.97;;;9.60;100.00
54540;BME280;40438;52.992;18.604;2022-10-31T04:34:54;101340.91;;;9.63;100.00
54540;BME280;40438;52.992;18.604;2022-10-31T04:37:21;101340.72;;;9.64;100.00
54540;BME280;40438;52.992;18.604;2022-10-31T04:39:47;101334.78;;;9.69;100.00
54540;BME280;40438;52.992;18.604;2022-10-31T04:42:31;101336.63;;;9.68;100.00
54540;BME280;40438;52.992;18.604;2022-10-31T04:45:00;101341.78;;;9.70;100.00
54540;BME280;40438;52.992;18.604;2022-10-31T04:47:26;101327.78;;;9.68;100.00
54540;BME280;40438;52.992;18.604;2022-10-31T04:49:52;101338.09;;;9.71;100.00
54540;BME280;40438;52.992;18.604;2022-10-31T04:52:20;101337.06;;;9.72;100.00
54540;BME280;40438;52.992;18.604;2022-10-31T04:54:46;101330.25;;;9.69;100.00
54540;BME280;40438;52.992;18.604;2022-10-31T04:57:30;101324.47;;;9.66;100.00
54540;BME280;40438;52.992;18.604;2022-10-31T04:59:59;101313.59;;;9.67;100.00
54540;BME280;40438;52.992;18.604;2022-10-31T05:02:25;101310.44;;;9.64;100.00
54540;BME280;40438;52.992;18.604;2022-10-31T05:04:56;101316.84;;;9.63;100.00
54540;BME280;40438;52.992;18.604;2022-10-31T05:07:23;101321.53;;;9.61;100.00
54540;BME280;40438;52.992;18.604;2022-10-31T05:09:49;101319.50;;;9.63;100.00
54540;BME280;40438;52.992;18.604;2022-10-31T05:12:17;101322.81;;;9.65;100.00
54540;BME280;40438;52.992;18.604;2022-10-31T05:15:02;101328.19;;;9.65;100.00
54540;BME280;40438;52.992;18.604;2022-10-31T05:17:46;101332.22;;;9.61;100.00
54540;BME280;40438;52.992;18.604;2022-10-31T05:20:41;101339.06;;;9.63;100.00
54540;BME280;40438;52.992;18.604;2022-10-31T05:23:25;101334.53;;;9.64;100.00
54540;BME280;40438;52.992;18.604;2022-10-31T05:25:50;101330.66;;;9.66;100.00
54540;BME280;40438;52.992;18.604;2022-10-31T05:28:17;101332.69;;;9.64;100.00
54540;BME280;40438;52.992;18.604;2022-10-31T05:30:42;101335.16;;;9.66;100.00
54540;BME280;40438;52.992;18.604;2022-10-31T05:33:12;101331.06;;;9.70;100.00
54540;BME280;40438;52.992;18.604;2022-10-31T05:36:04;101330.50;;;9.74;100.00
54540;BME280;40438;52.992;18.604;2022-10-31T05:38:38;101336.47;;;9.76;100.00
54540;BME280;40438;52.992;18.604;2022-10-31T05:41:23;101351.31;;;9.79;100.00
54540;BME280;40438;52.992;18.604;2022-10-31T05:43:50;101348.84;;;9.77;100.00
54540;BME280;40438;52.992;18.604;2022-10-31T05:46:19;101344.28;;;9.71;100.00
54540;BME280;40438;52.992;18.604;2022-10-31T05:49:04;101350.25;;;9.73;100.00
54540;BME280;40438;52.992;18.604;2022-10-31T05:52:02;101352.75;;;9.75;100.00
54540;BME280;40438;52.992;18.604;2022-10-31T05:54:41;101353.38;;;9.77;100.00
54540;BME280;40438;52.992;18.604;2022-10-31T05:57:08;101351.91;;;9.74;100.00
54540;BME280;40438;52.992;18.604;2022-10-31T05:59:33;101353.78;;;9.74;100.00
54540;BME280;40438;52.992;18.604;2022-10-31T06:02:00;101364.09;;;9.77;100.00
54540;BME280;40438;52.992;18.604;2022-10-31T06:04:46;101357.88;;;9.76;100.00
54540;BME280;40438;52.992;18.604;2022-10-31T06:07:12;101365.91;;;9.76;100.00
54540;BME280;40438;52.992;18.604;2022-10-31T06:09:38;101363.88;;;9.79;100.00
54540;BME280;40438;52.992;18.604;2022-10-31T06:12:07;101370.88;;;9.80;100.00
54540;BME280;40438;52.992;18.604;2022-10-31T06:14:53;101369.06;;;9.80;100.00
54540;BME280;40438;52.992;18.604;2022-10-31T06:17:18;101371.53;;;9.82;100.00
54540;BME280;40438;52.992;18.604;2022-10-31T06:19:47;101368.66;;;9.83;100.00
54540;BME280;40438;52.992;18.604;2022-10-31T06:22:18;101377.31;;;9.85;100.00
54540;BME280;40438;52.992;18.604;2022-10-31T06:24:44;101379.81;;;9.87;100.00
54540;BME280;40438;52.992;18.604;2022-10-31T06:27:20;101380.19;;;9.84;100.00
54540;BME280;40438;52.992;18.604;2022-10-31T06:29:46;101376.69;;;9.83;100.00
54540;BME280;40438;52.992;18.604;2022-10-31T06:32:19;101385.97;;;9.87;100.00
54540;BME280;40438;52.992;18.604;2022-10-31T06:34:45;101383.91;;;9.89;100.00
54540;BME280;40438;52.992;18.604;2022-10-31T06:37:14;101384.78;;;9.90;100.00
54540;BME280;40438;52.992;18.604;2022-10-31T06:39:43;101382.91;;;9.90;100.00
54540;BME280;40438;52.992;18.604;2022-10-31T06:42:11;101385.22;;;9.93;100.00
54540;BME280;40438;52.992;18.604;2022-10-31T06:44:38;101384.00;;;9.96;100.00
54540;BME280;40438;52.992;18.604;2022-10-31T06:47:22;101394.69;;;9.96;100.00
54540;BME280;40438;52.992;18.604;2022-10-31T06:49:54;101391.63;;;9.99;100.00
54540;BME280;40438;52.992;18.604;2022-10-31T06:52:22;101394.69;;;9.96;100.00
54540;BME280;40438;52.992;18.604;2022-10-31T06:54:48;101402.53;;;9.97;100.00
54540;BME280;40438;52.992;18.604;2022-10-31T06:57:14;101398.97;;;9.90;100.00
54540;BME280;40438;52.992;18.604;2022-10-31T06:59:41;101397.56;;;9.94;100.00
54540;BME280;40438;52.992;18.604;2022-10-31T07:02:16;101395.53;;;9.96;100.00
54540;BME280;40438;52.992;18.604;2022-10-31T07:04:43;101394.94;;;10.01;100.00
54540;BME280;40438;52.992;18.604;2022-10-31T07:07:12;101399.06;;;10.04;100.00
54540;BME280;40438;52.992;18.604;2022-10-31T07:09:38;101406.88;;;10.05;100.00
54540;BME280;40438;52.992;18.604;2022-10-31T07:12:05;101411.25;;;10.06;100.00
54540;BME280;40438;52.992;18.604;2022-10-31T07:14:35;101413.91;;;10.06;100.00
54540;BME280;40438;52.992;18.604;2022-10-31T07:17:02;101410.03;;;10.09;100.00
54540;BME280;40438;52.992;18.604;2022-10-31T07:19:34;101404.28;;;10.12;100.00
54540;BME280;40438;52.992;18.604;2022-10-31T07:21:59;101415.38;;;10.09;100.00
54540;BME280;40438;52.992;18.604;2022-10-31T07:24:28;101411.25;;;10.06;100.00
54540;BME280;40438;52.992;18.604;2022-10-31T07:27:12;101419.72;;;10.10;100.00
54540;BME280;40438;52.992;18.604;2022-10-31T07:29:38;101408.78;;;10.11;100.00
54540;BME280;40438;52.992;18.604;2022-10-31T07:32:05;101415.00;;;10.12;100.00
54540;BME280;40438;52.992;18.604;2022-10-31T07:34:34;101403.38;;;10.05;100.00
54540;BME280;40438;52.992;18.604;2022-10-31T07:37:22;101417.41;;;10.07;100.00
54540;BME280;40438;52.992;18.604;2022-10-31T07:39:53;101429.38;;;10.11;100.00
54540;BME280;40438;52.992;18.604;2022-10-31T07:42:19;101428.78;;;10.09;100.00
54540;BME280;40438;52.992;18.604;2022-10-31T07:44:45;101434.75;;;10.11;100.00
54540;BME280;40438;52.992;18.604;2022-10-31T07:47:37;101429.38;;;10.11;100.00
54540;BME280;40438;52.992;18.604;2022-10-31T07:50:07;101433.75;;;10.12;100.00
54540;BME280;40438;52.992;18.604;2022-10-31T07:52:59;101435.00;;;10.16;100.00
54540;BME280;40438;52.992;18.604;2022-10-31T07:55:43;101428.59;;;10.17;100.00
54540;BME280;40438;52.992;18.604;2022-10-31T07:58:12;101430.91;;;10.20;100.00
54540;BME280;40438;52.992;18.604;2022-10-31T08:00:40;101436.69;;;10.23;100.00
54540;BME280;40438;52.992;18.604;2022-10-31T08:03:10;101437.50;;;10.24;100.00
54540;BME280;40438;52.992;18.604;2022-10-31T08:06:06;101436.75;;;10.30;100.00
54540;BME280;40438;52.992;18.604;2022-10-31T08:08:50;101447.88;;;10.27;100.00
54540;BME280;40438;52.992;18.604;2022-10-31T08:11:17;101448.50;;;10.29;100.00
54540;BME280;40438;52.992;18.604;2022-10-31T08:13:43;101437.81;;;10.29;100.00
54540;BME280;40438;52.992;18.604;2022-10-31T08:16:12;101442.13;;;10.30;100.00
54540;BME280;40438;52.992;18.604;2022-10-31T08:18:49;101439.06;;;10.33;100.00
54540;BME280;40438;52.992;18.604;2022-10-31T08:21:15;101444.03;;;10.36;100.00
54540;BME280;40438;52.992;18.604;2022-10-31T08:23:43;101448.38;;;10.37;100.00
54540;BME280;40438;52.992;18.604;2022-10-31T08:26:09;101445.44;;;10.32;100.00
54540;BME280;40438;52.992;18.604;2022-10-31T08:28:36;101447.72;;;10.35;100.00
54540;BME280;40438;52.992;18.604;2022-10-31T08:31:02;101452.88;;;10.37;100.00
54540;BME280;40438;52.992;18.604;2022-10-31T08:33:40;101455.75;;;10.35;100.00
54540;BME280;40438;52.992;18.604;2022-10-31T08:36:09;101446.69;;;10.36;100.00
54540;BME280;40438;52.992;18.604;2022-10-31T08:38:47;101464.63;;;10.36;100.00
54540;BME280;40438;52.992;18.604;2022-10-31T08:41:13;101466.25;;;10.37;100.00
54540;BME280;40438;52.992;18.604;2022-10-31T08:43:39;101465.69;;;10.41;100.00
54540;BME280;40438;52.992;18.604;2022-10-31T08:46:06;101473.34;;;10.44;100.00
54540;BME280;40438;52.992;18.604;2022-10-31T08:48:32;101472.31;;;10.45;100.00
54540;BME280;40438;52.992;18.604;2022-10-31T08:51:00;101476.47;;;10.48;100.00
54540;BME280;40438;52.992;18.604;2022-10-31T08:53:29;101466.34;;;10.43;100.00
54540;BME280;40438;52.992;18.604;2022-10-31T08:56:27;101471.31;;;10.47;100.00
54540;BME280;40438;52.992;18.604;2022-10-31T08:58:53;101471.69;;;10.43;100.00
54540;BME280;40438;52.992;18.604;2022-10-31T09:01:26;101471.06;;;10.41;100.00
54540;BME280;40438;52.992;18.604;2022-10-31T09:03:52;101473.91;;;10.40;100.00
54540;BME280;40438;52.992;18.604;2022-10-31T09:06:17;101474.94;;;10.39;100.00
54540;BME280;40438;52.992;18.604;2022-10-31T09:08:48;101468.81;;;10.45;100.00
54540;BME280;40438;52.992;18.604;2022-10-31T09:11:15;101472.53;;;10.44;100.00
54540;BME280;40438;52.992;18.604;2022-10-31T09:14:01;101470.47;;;10.46;100.00
54540;BME280;40438;52.992;18.604;2022-10-31T09:16:39;101472.97;;;10.48;100.00
54540;BME280;40438;52.992;18.604;2022-10-31T09:19:10;101465.34;;;10.51;100.00
54540;BME280;40438;52.992;18.604;2022-10-31T09:21:35;101461.03;;;10.50;100.00
54540;BME280;40438;52.992;18.604;2022-10-31T09:24:04;101470.31;;;10.54;100.00
54540;BME280;40438;52.992;18.604;2022-10-31T09:26:31;101460.25;;;10.56;100.00
54540;BME280;40438;52.992;18.604;2022-10-31T09:29:12;101452.00;;;10.58;100.00
54540;BME280;40438;52.992;18.604;2022-10-31T09:31:38;101461.91;;;10.57;100.00
54540;BME280;40438;52.992;18.604;2022-10-31T09:34:24;101456.16;;;10.60;100.00
54540;BME280;40438;52.992;18.604;2022-10-31T09:37:23;101459.44;;;10.62;100.00
54540;BME280;40438;52.992;18.604;2022-10-31T09:39:52;101463.97;;;10.62;100.00
54540;BME280;40438;52.992;18.604;2022-10-31T09:42:37;101461.94;;;10.64;100.00
54540;BME280;40438;52.992;18.604;2022-10-31T09:45:18;101469.56;;;10.67;100.00
54540;BME280;40438;52.992;18.604;2022-10-31T09:47:56;101469.81;;;10.72;100.00
54540;BME280;40438;52.992;18.604;2022-10-31T09:50:38;101468.19;;;10.78;100.00
54540;BME280;40438;52.992;18.604;2022-10-31T09:53:38;101479.97;;;10.83;100.00
54540;BME280;40438;52.992;18.604;2022-10-31T09:56:10;101473.56;;;10.84;100.00
54540;BME280;40438;52.992;18.604;2022-10-31T09:58:42;101475.69;;;10.89;100.00
54540;BME280;40438;52.992;18.604;2022-10-31T10:01:17;101475.28;;;10.92;100.00
54540;BME280;40438;52.992;18.604;2022-10-31T10:03:47;101476.94;;;10.93;100.00
54540;BME280;40438;52.992;18.604;2022-10-31T10:06:42;101479.44;;;10.95;100.00
54540;BME280;40438;52.992;18.604;2022-10-31T10:09:29;101477.56;;;10.95;100.00
54540;BME280;40438;52.992;18.604;2022-10-31T10:12:22;101479.22;;;10.96;100.00
54540;BME280;40438;52.992;18.604;2022-10-31T10:15:05;101475.31;;;10.99;100.00
54540;BME280;40438;52.992;18.604;2022-10-31T10:17:43;101481.47;;;10.92;100.00
54540;BME280;40438;52.992;18.604;2022-10-31T10:20:21;101481.25;;;10.94;100.00
54540;BME280;40438;52.992;18.604;2022-10-31T10:22:57;101483.09;;;10.87;100.00
54540;BME280;40438;52.992;18.604;2022-10-31T10:25:33;101490.06;;;10.81;100.00
54540;BME280;40438;52.992;18.604;2022-10-31T10:28:10;101482.22;;;10.80;100.00
54540;BME280;40438;52.992;18.604;2022-10-31T10:30:42;101473.38;;;10.79;100.00
54540;BME280;40438;52.992;18.604;2022-10-31T10:33:13;101475.00;;;10.80;100.00
54540;BME280;40438;52.992;18.604;2022-10-31T10:35:43;101464.06;;;10.75;100.00
54540;BME280;40438;52.992;18.604;2022-10-31T10:38:18;101469.44;;;10.75;100.00
54540;BME280;40438;52.992;18.604;2022-10-31T10:40:47;101462.63;;;10.79;100.00
54540;BME280;40438;52.992;18.604;2022-10-31T10:43:26;101463.06;;;10.83;100.00
54540;BME280;40438;52.992;18.604;2022-10-31T10:45:59;101468.84;;;10.86;100.00
54540;BME280;40438;52.992;18.604;2022-10-31T10:48:32;101469.69;;;10.87;100.00
54540;BME280;40438;52.992;18.604;2022-10-31T10:51:03;101468.22;;;10.84;100.00
54540;BME280;40438;52.992;18.604;2022-10-31T10:53:42;101474.88;;;10.88;100.00
54540;BME280;40438;52.992;18.604;2022-10-31T10:56:15;101468.84;;;10.86;100.00
54540;BME280;40438;52.992;18.604;2022-10-31T10:58:42;101477.53;;;10.88;100.00
54540;BME280;40438;52.992;18.604;2022-10-31T11:01:13;101473.00;;;10.89;100.00
54540;BME280;40438;52.992;18.604;2022-10-31T11:03:39;101473.66;;;10.91;100.00
54540;BME280;40438;52.992;18.604;2022-10-31T11:06:17;101472.41;;;10.93;100.00
54540;BME280;40438;52.992;18.604;2022-10-31T11:08:42;101471.16;;;10.89;100.00
54540;BME280;40438;52.992;18.604;2022-10-31T11:11:17;101466.78;;;10.82;100.00
54540;BME280;40438;52.992;18.604;2022-10-31T11:13:48;101464.13;;;10.88;100.00
54540;BME280;40438;52.992;18.604;2022-10-31T11:16:27;101459.38;;;10.90;100.00
54540;BME280;40438;52.992;18.604;2022-10-31T11:18:53;101466.84;;;10.95;100.00
54540;BME280;40438;52.992;18.604;2022-10-31T11:21:30;101470.13;;;10.97;100.00
54540;BME280;40438;52.992;18.604;2022-10-31T11:24:02;101470.13;;;10.97;100.00
54540;BME280;40438;52.992;18.604;2022-10-31T11:26:28;101474.09;;;11.01;100.00
54540;BME280;40438;52.992;18.604;2022-10-31T11:28:59;101478.63;;;11.01;100.00
54540;BME280;40438;52.992;18.604;2022-10-31T11:31:25;101486.88;;;10.99;100.00
54540;BME280;40438;52.992;18.604;2022-10-31T11:33:57;101481.50;;;10.99;100.00
54540;BME280;40438;52.992;18.604;2022-10-31T11:36:25;101484.19;;;10.99;100.00
54540;BME280;40438;52.992;18.604;2022-10-31T11:38:53;101480.28;;;11.02;100.00
54540;BME280;40438;52.992;18.604;2022-10-31T11:41:25;101478.44;;;11.02;100.00
54540;BME280;40438;52.992;18.604;2022-10-31T11:43:54;101478.25;;;11.04;100.00
54540;BME280;40438;52.992;18.604;2022-10-31T11:46:30;101470.41;;;11.09;100.00
54540;BME280;40438;52.992;18.604;2022-10-31T11:48:59;101474.13;;;11.08;100.00
54540;BME280;40438;52.992;18.604;2022-10-31T11:51:28;101471.63;;;11.06;100.00
54540;BME280;40438;52.992;18.604;2022-10-31T11:53:57;101470.81;;;11.06;100.00
54540;BME280;40438;52.992;18.604;2022-10-31T11:56:23;101466.25;;;11.06;100.00
54540;BME280;40438;52.992;18.604;2022-10-31T11:58:56;101459.06;;;11.07;100.00
54540;BME280;40438;52.992;18.604;2022-10-31T12:01:24;101463.41;;;11.08;100.00
54540;BME280;40438;52.992;18.604;2022-10-31T12:03:57;101464.47;;;11.13;100.00
54540;BME280;40438;52.992;18.604;2022-10-31T12:06:28;101451.88;;;11.14;100.00
54540;BME280;40438;52.992;18.604;2022-10-31T12:08:54;101455.38;;;11.14;100.00
54540;BME280;40438;52.992;18.604;2022-10-31T12:11:33;101461.16;;;11.18;100.00
54540;BME280;40438;52.992;18.604;2022-10-31T12:14:11;101461.81;;;11.20;100.00
54540;BME280;40438;52.992;18.604;2022-10-31T12:16:48;101459.34;;;11.25;100.00
54540;BME280;40438;52.992;18.604;2022-10-31T12:19:23;101453.56;;;11.28;100.00
54540;BME280;40438;52.992;18.604;2022-10-31T12:22:04;101455.25;;;11.29;100.00
54540;BME280;40438;52.992;18.604;2022-10-31T12:24:42;101457.53;;;11.32;100.00
54540;BME280;40438;52.992;18.604;2022-10-31T12:27:16;101455.66;;;11.33;100.00
54540;BME280;40438;52.992;18.604;2022-10-31T12:29:59;101467.84;;;11.35;100.00
54540;BME280;40438;52.992;18.604;2022-10-31T12:32:37;101470.53;;;11.35;100.00
54540;BME280;40438;52.992;18.604;2022-10-31T12:35:38;101467.84;;;11.35;100.00
54540;BME280;40438;52.992;18.604;2022-10-31T12:38:20;101471.34;;;11.36;100.00
54540;BME280;40438;52.992;18.604;2022-10-31T12:41:03;101474.47;;;11.39;100.00
54540;BME280;40438;52.992;18.604;2022-10-31T12:43:42;101474.63;;;11.38;100.00
54540;BME280;40438;52.992;18.604;2022-10-31T12:46:19;101478.56;;;11.35;100.00
54540;BME280;40438;52.992;18.604;2022-10-31T12:49:20;101472.56;;;11.33;100.00
54540;BME280;40438;52.992;18.604;2022-10-31T12:52:00;101467.22;;;11.33;100.00
54540;BME280;40438;52.992;18.604;2022-10-31T12:54:37;101469.50;;;11.43;100.00
54540;BME280;40438;52.992;18.604;2022-10-31T12:57:12;101464.56;;;11.40;100.00
54540;BME280;40438;52.992;18.604;2022-10-31T12:59:42;101466.41;;;11.39;100.00
54540;BME280;40438;52.992;18.604;2022-10-31T13:02:15;101463.72;;;11.39;100.00